Time;durP1;ratioP1;P1;durP2;ratioP2;P2;SDS_P1;SDS_P2;PMS_P1;PMS_P2;Temp;Humidity;BMP_temperature;BMP_pressure;BME280_temperature;BME280_humidity;BME280_pressure;Samples;Min_cycle;Max_cycle;Signal;HPM_P1;HPM_P2
2022/07/31 00:01:47;;;;;;;7.35;4.90;;;;;;;;;;5047724;28;20048;-73
2022/07/31 00:04:16;;;;;;;6.88;5.10;;;;;;;;;;5037555;28;20044;-73
2022/07/31 00:06:43;;;;;;;7.28;5.30;;;;;;;;;;5038121;28;20045;-73
2022/07/31 00:09:09;;;;;;;6.22;4.70;;;;;;;;;;5034435;28;20050;-73
2022/07/31 00:11:35;;;;;;;5.55;5.05;;;;;;;;;;5045896;28;20067;-73
2022/07/31 00:14:01;;;;;;;5.90;5.00;;;;;;;;;;5041538;28;20136;-73
2022/07/31 00:16:27;;;;;;;5.47;4.97;;;;;;;;;;5032048;28;20049;-73
2022/07/31 00:18:53;;;;;;;6.03;4.47;;;;;;;;;;5035745;28;20045;-73
2022/07/31 00:21:19;;;;;;;5.07;4.57;;;;;;;;;;5054301;28;20082;-73
2022/07/31 00:23:45;;;;;;;5.40;4.70;;;;;;;;;;5041045;28;20405;-73
2022/07/31 00:26:11;;;;;;;5.22;4.72;;;;;;;;;;5043750;28;20051;-73
2022/07/31 00:28:37;;;;;;;7.63;5.20;;;;;;;;;;5051694;28;20045;-73
2022/07/31 00:31:03;;;;;;;5.50;5.00;;;;;;;;;;5042979;28;20048;-73
2022/07/31 00:33:29;;;;;;;6.22;5.20;;;;;;;;;;5045256;28;20041;-74
2022/07/31 00:35:55;;;;;;;5.82;5.22;;;;;;;;;;5038843;28;20059;-73
2022/07/31 00:38:21;;;;;;;5.63;5.00;;;;;;;;;;5043243;28;20056;-73
2022/07/31 00:40:48;;;;;;;5.97;5.05;;;;;;;;;;5039861;28;20539;-73
2022/07/31 00:43:15;;;;;;;5.57;5.07;;;;;;;;;;5042399;28;20048;-74
2022/07/31 00:45:41;;;;;;;5.90;5.30;;;;;;;;;;5031559;28;20045;-73
2022/07/31 00:48:07;;;;;;;6.40;5.00;;;;;;;;;;5032268;28;20038;-73
2022/07/31 00:50:33;;;;;;;5.93;5.07;;;;;;;;;;5043330;28;20037;-74
2022/07/31 00:53:00;;;;;;;5.95;5.45;;;;;;;;;;5035103;28;20045;-73
2022/07/31 00:55:26;;;;;;;6.25;5.15;;;;;;;;;;5044239;28;20044;-73
2022/07/31 00:57:52;;;;;;;5.43;4.93;;;;;;;;;;5036688;28;20803;-74
2022/07/31 01:00:18;;;;;;;7.72;5.20;;;;;;;;;;5028367;28;20132;-73
2022/07/31 01:02:44;;;;;;;5.38;4.82;;;;;;;;;;5039245;28;20500;-73
2022/07/31 01:05:10;;;;;;;5.78;5.10;;;;;;;;;;5049796;28;20511;-73
2022/07/31 01:07:36;;;;;;;5.53;4.70;;;;;;;;;;5044526;28;20106;-73
2022/07/31 01:10:04;;;;;;;6.65;5.20;;;;;;;;;;5049216;28;20045;-74
2022/07/31 01:12:39;;;;;;;6.03;5.05;;;;;;;;;;5055332;28;20420;-74
2022/07/31 01:15:07;;;;;;;5.55;4.93;;;;;;;;;;5048989;28;20489;-73
2022/07/31 01:17:33;;;;;;;5.70;5.20;;;;;;;;;;5044198;28;20072;-74
2022/07/31 01:19:59;;;;;;;7.05;5.55;;;;;;;;;;5036551;28;20049;-73
2022/07/31 01:22:25;;;;;;;5.95;4.78;;;;;;;;;;5061655;28;20051;-73
2022/07/31 01:25:07;;;;;;;7.57;5.25;;;;;;;;;;5033000;28;20037;-73
2022/07/31 01:27:52;;;;;;;5.40;4.95;;;;;;;;;;5047256;28;20477;-74
2022/07/31 01:30:19;;;;;;;6.25;4.70;;;;;;;;;;5034643;28;20419;-73
2022/07/31 01:32:47;;;;;;;6.22;4.50;;;;;;;;;;5043545;28;20073;-73
2022/07/31 01:35:28;;;;;;;7.15;4.78;;;;;;;;;;5042038;28;20053;-73
2022/07/31 01:37:56;;;;;;;6.28;4.88;;;;;;;;;;5037443;28;20082;-73
2022/07/31 01:40:25;;;;;;;5.22;4.60;;;;;;;;;;5033803;28;20049;-74
2022/07/31 01:42:54;;;;;;;5.72;4.70;;;;;;;;;;5042208;28;20060;-73
2022/07/31 01:45:21;;;;;;;5.40;4.90;;;;;;;;;;5047716;28;20057;-73
2022/07/31 01:47:48;;;;;;;7.65;5.07;;;;;;;;;;5044553;28;20506;-73
2022/07/31 01:50:14;;;;;;;7.35;5.63;;;;;;;;;;5044513;28;20048;-73
2022/07/31 01:52:41;;;;;;;5.22;4.70;;;;;;;;;;5073128;28;20053;-73
2022/07/31 01:55:09;;;;;;;5.65;5.15;;;;;;;;;;5043854;28;20037;-73
2022/07/31 01:57:36;;;;;;;4.80;4.35;;;;;;;;;;5040516;28;20064;-73
2022/07/31 02:00:05;;;;;;;7.82;4.97;;;;;;;;;;5040931;28;20055;-73
2022/07/31 02:02:32;;;;;;;6.25;4.38;;;;;;;;;;5060737;28;20040;-73
2022/07/31 02:04:58;;;;;;;7.22;5.50;;;;;;;;;;5053562;28;20115;-73
2022/07/31 02:07:24;;;;;;;6.22;4.80;;;;;;;;;;5044875;28;20049;-73
2022/07/31 02:09:52;;;;;;;8.27;5.18;;;;;;;;;;5055546;28;20048;-73
2022/07/31 02:12:18;;;;;;;5.85;4.97;;;;;;;;;;5039505;28;20041;-73
2022/07/31 02:14:45;;;;;;;7.00;5.00;;;;;;;;;;5048816;28;20044;-74
2022/07/31 02:17:12;;;;;;;5.10;4.60;;;;;;;;;;5049690;28;20122;-73
2022/07/31 02:19:39;;;;;;;5.10;4.70;;;;;;;;;;5032423;28;20446;-73
2022/07/31 02:22:05;;;;;;;6.05;4.50;;;;;;;;;;5034073;28;20124;-73
2022/07/31 02:24:32;;;;;;;5.78;4.57;;;;;;;;;;5046326;28;20038;-73
2022/07/31 02:26:58;;;;;;;5.43;4.93;;;;;;;;;;5039162;28;20049;-73
2022/07/31 02:29:24;;;;;;;5.80;5.07;;;;;;;;;;5053131;28;20057;-74
2022/07/31 02:31:54;;;;;;;5.50;5.00;;;;;;;;;;5041937;28;20128;-73
2022/07/31 02:34:21;;;;;;;4.90;4.50;;;;;;;;;;5046454;28;20519;-73
2022/07/31 02:36:48;;;;;;;5.38;4.90;;;;;;;;;;5045500;28;20037;-74
2022/07/31 02:39:14;;;;;;;6.63;4.93;;;;;;;;;;5054133;28;20048;-74
2022/07/31 02:41:40;;;;;;;6.50;5.40;;;;;;;;;;5049303;28;20102;-73
2022/07/31 02:44:08;;;;;;;5.15;4.75;;;;;;;;;;5035246;28;20044;-73
2022/07/31 02:46:35;;;;;;;5.47;4.97;;;;;;;;;;5050711;28;20384;-73
2022/07/31 02:49:01;;;;;;;5.47;4.97;;;;;;;;;;5049821;28;20075;-73
2022/07/31 02:51:28;;;;;;;6.45;5.03;;;;;;;;;;5045397;28;20041;-74
2022/07/31 02:53:54;;;;;;;5.40;4.90;;;;;;;;;;5038864;28;20046;-73
2022/07/31 02:56:20;;;;;;;6.13;5.25;;;;;;;;;;5037936;28;20064;-73
2022/07/31 02:58:46;;;;;;;7.50;4.97;;;;;;;;;;5039902;28;20040;-73
2022/07/31 03:01:13;;;;;;;8.02;4.97;;;;;;;;;;5037984;28;20741;-73
2022/07/31 03:03:39;;;;;;;5.47;4.97;;;;;;;;;;5035199;28;20096;-73
2022/07/31 03:06:05;;;;;;;5.60;5.07;;;;;;;;;;5035588;28;20075;-73
2022/07/31 03:08:31;;;;;;;6.15;5.55;;;;;;;;;;5040185;28;20072;-73
2022/07/31 03:10:57;;;;;;;6.38;5.40;;;;;;;;;;5035293;28;20413;-73
2022/07/31 03:13:24;;;;;;;6.60;5.25;;;;;;;;;;5036534;28;20499;-74
2022/07/31 03:15:51;;;;;;;5.90;5.32;;;;;;;;;;5034644;28;20073;-74
2022/07/31 03:18:20;;;;;;;5.50;4.95;;;;;;;;;;5041694;28;20078;-74
2022/07/31 03:20:50;;;;;;;5.63;5.20;;;;;;;;;;5038948;28;20081;-73
2022/07/31 03:23:17;;;;;;;7.43;5.40;;;;;;;;;;5049661;28;20037;-74
2022/07/31 03:25:43;;;;;;;5.68;5.18;;;;;;;;;;5047737;28;20052;-74
2022/07/31 03:28:09;;;;;;;5.90;5.28;;;;;;;;;;5080211;28;20049;-74
2022/07/31 03:30:35;;;;;;;5.90;5.07;;;;;;;;;;5034866;28;20075;-74
2022/07/31 03:33:02;;;;;;;7.53;5.40;;;;;;;;;;5036337;28;20136;-73
2022/07/31 03:35:28;;;;;;;6.75;5.50;;;;;;;;;;5050850;28;20070;-74
2022/07/31 03:37:55;;;;;;;5.70;5.20;;;;;;;;;;5033232;28;20072;-73
2022/07/31 03:40:21;;;;;;;5.55;5.15;;;;;;;;;;5039900;28;20584;-74
2022/07/31 03:42:48;;;;;;;6.97;5.60;;;;;;;;;;5067944;28;20052;-73
2022/07/31 03:45:15;;;;;;;6.68;4.72;;;;;;;;;;5051144;28;20399;-73
2022/07/31 03:47:41;;;;;;;5.82;5.25;;;;;;;;;;5050398;28;20499;-73
2022/07/31 03:50:07;;;;;;;5.40;4.88;;;;;;;;;;5070021;28;20103;-73
2022/07/31 03:52:34;;;;;;;5.90;5.30;;;;;;;;;;5040733;28;20062;-73
2022/07/31 03:55:00;;;;;;;7.20;6.30;;;;;;;;;;5036935;28;20057;-74
2022/07/31 03:57:27;;;;;;;6.70;5.50;;;;;;;;;;5053134;28;20063;-73
2022/07/31 03:59:56;;;;;;;6.53;5.85;;;;;;;;;;5042473;28;20454;-73
2022/07/31 04:02:24;;;;;;;6.53;5.78;;;;;;;;;;5046166;28;20041;-73
2022/07/31 04:04:50;;;;;;;6.90;5.78;;;;;;;;;;5045608;28;20083;-73
2022/07/31 04:07:16;;;;;;;6.00;5.32;;;;;;;;;;5030609;28;20103;-73
2022/07/31 04:09:42;;;;;;;6.10;5.53;;;;;;;;;;5042405;28;20048;-73
2022/07/31 04:12:08;;;;;;;6.10;5.60;;;;;;;;;;5048257;28;20052;-73
2022/07/31 04:14:34;;;;;;;6.43;5.82;;;;;;;;;;5046008;28;20052;-74
2022/07/31 04:17:00;;;;;;;6.22;5.63;;;;;;;;;;5050757;28;20417;-73
2022/07/31 04:19:29;;;;;;;6.90;6.18;;;;;;;;;;5036013;28;20052;-73
2022/07/31 04:21:56;;;;;;;6.88;5.97;;;;;;;;;;5047361;28;20583;-73
2022/07/31 04:24:22;;;;;;;6.80;6.15;;;;;;;;;;5074406;28;20507;-73
2022/07/31 04:26:48;;;;;;;7.05;6.22;;;;;;;;;;5040422;28;20073;-74
2022/07/31 04:29:14;;;;;;;6.72;6.13;;;;;;;;;;5044050;28;20036;-73
2022/07/31 04:31:40;;;;;;;6.47;5.82;;;;;;;;;;5050780;28;20044;-73
2022/07/31 04:34:06;;;;;;;6.88;6.18;;;;;;;;;;5042177;28;20103;-73
2022/07/31 04:36:32;;;;;;;7.28;6.57;;;;;;;;;;5049586;28;20472;-73
2022/07/31 04:38:59;;;;;;;7.85;6.38;;;;;;;;;;5050103;28;20048;-73
2022/07/31 04:41:25;;;;;;;8.60;7.45;;;;;;;;;;5043284;28;20102;-73
2022/07/31 04:43:54;;;;;;;7.38;6.68;;;;;;;;;;5053173;28;20047;-73
2022/07/31 04:46:20;;;;;;;7.95;7.15;;;;;;;;;;5048460;28;20107;-73
2022/07/31 04:48:46;;;;;;;8.95;7.40;;;;;;;;;;5041400;28;20072;-73
2022/07/31 04:51:19;;;;;;;10.15;8.13;;;;;;;;;;5055929;28;20047;-73
2022/07/31 04:53:51;;;;;;;8.52;7.40;;;;;;;;;;5050176;28;20060;-73
2022/07/31 04:56:34;;;;;;;8.43;7.68;;;;;;;;;;5055693;28;20496;-74
2022/07/31 04:59:00;;;;;;;;;;;;;;;;;;5035591;28;20083;-73
2022/07/31 05:01:26;;;;;;;8.80;7.88;;;;;;;;;;5037352;28;19924;-73
2022/07/31 05:03:52;;;;;;;8.82;7.78;;;;;;;;;;5036193;28;20060;-73
2022/07/31 05:06:18;;;;;;;8.85;7.95;;;;;;;;;;5044651;28;20042;-74
2022/07/31 05:08:44;;;;;;;10.75;9.35;;;;;;;;;;5032608;28;20367;-73
2022/07/31 05:11:22;;;;;;;11.35;9.10;;;;;;;;;;5042654;28;20049;-73
2022/07/31 05:13:49;;;;;;;11.00;9.93;;;;;;;;;;5049924;28;20041;-73
2022/07/31 05:16:16;;;;;;;11.32;9.68;;;;;;;;;;5043768;28;20056;-73
2022/07/31 05:18:44;;;;;;;11.50;10.35;;;;;;;;;;5041190;28;20076;-73
2022/07/31 05:21:10;;;;;;;11.63;9.93;;;;;;;;;;5050702;28;20383;-73
2022/07/31 05:23:36;;;;;;;13.30;9.65;;;;;;;;;;5037141;28;20049;-73
2022/07/31 05:26:02;;;;;;;10.77;8.65;;;;;;;;;;5039622;28;20079;-73
2022/07/31 05:28:28;;;;;;;10.70;9.02;;;;;;;;;;5043328;28;20099;-73
2022/07/31 05:30:54;;;;;;;8.77;7.93;;;;;;;;;;5048588;28;20151;-73
2022/07/31 05:33:20;;;;;;;9.90;7.97;;;;;;;;;;5058425;28;20052;-73
2022/07/31 05:35:46;;;;;;;11.50;9.10;;;;;;;;;;5055328;28;20059;-73
2022/07/31 05:38:12;;;;;;;8.80;7.90;;;;;;;;;;5052273;28;20076;-74
2022/07/31 05:40:38;;;;;;;10.30;8.20;;;;;;;;;;5048074;28;20044;-73
2022/07/31 05:43:04;;;;;;;9.70;8.13;;;;;;;;;;5058563;28;20036;-73
2022/07/31 05:45:30;;;;;;;9.90;7.93;;;;;;;;;;5053185;28;20056;-73
2022/07/31 05:47:56;;;;;;;9.35;7.47;;;;;;;;;;5057389;28;20048;-73
2022/07/31 05:50:22;;;;;;;10.82;7.50;;;;;;;;;;5037761;28;20052;-74
2022/07/31 05:52:48;;;;;;;10.48;7.45;;;;;;;;;;5062664;28;20048;-73
2022/07/31 05:55:14;;;;;;;8.32;6.82;;;;;;;;;;5042766;28;20076;-73
2022/07/31 05:57:40;;;;;;;10.52;6.13;;;;;;;;;;5037202;28;20103;-73
2022/07/31 06:00:07;;;;;;;8.90;6.22;;;;;;;;;;5051082;28;20028;-73
2022/07/31 06:02:34;;;;;;;8.13;5.63;;;;;;;;;;5059400;28;20041;-74
2022/07/31 06:05:00;;;;;;;8.45;5.50;;;;;;;;;;5049668;28;20045;-73
2022/07/31 06:07:26;;;;;;;9.13;5.35;;;;;;;;;;5052240;28;20099;-73
2022/07/31 06:09:52;;;;;;;8.57;5.32;;;;;;;;;;5048363;28;20935;-73
2022/07/31 06:12:18;;;;;;;6.50;5.50;;;;;;;;;;5057272;28;20047;-73
2022/07/31 06:14:44;;;;;;;9.20;5.97;;;;;;;;;;5050521;28;20056;-73
2022/07/31 06:17:10;;;;;;;8.55;5.55;;;;;;;;;;5050152;28;20049;-74
2022/07/31 06:19:37;;;;;;;8.75;5.45;;;;;;;;;;5031939;28;20052;-73
2022/07/31 06:22:03;;;;;;;6.75;4.68;;;;;;;;;;5033895;28;20077;-73
2022/07/31 06:24:29;;;;;;;8.15;5.40;;;;;;;;;;5049181;28;20084;-73
2022/07/31 06:27:00;;;;;;;7.00;5.13;;;;;;;;;;5053042;28;20044;-73
2022/07/31 06:29:29;;;;;;;8.02;4.82;;;;;;;;;;5049169;28;20448;-73
2022/07/31 06:31:55;;;;;;;6.63;5.53;;;;;;;;;;5047105;28;20080;-73
2022/07/31 06:34:22;;;;;;;6.53;5.15;;;;;;;;;;5040964;28;20424;-73
2022/07/31 06:36:48;;;;;;;6.47;5.40;;;;;;;;;;5045603;28;20045;-73
2022/07/31 06:39:15;;;;;;;6.68;5.53;;;;;;;;;;5045284;28;20045;-73
2022/07/31 06:41:43;;;;;;;7.90;5.53;;;;;;;;;;5046066;28;20049;-73
2022/07/31 06:44:13;;;;;;;7.40;6.15;;;;;;;;;;5048647;28;20068;-73
2022/07/31 06:46:39;;;;;;;8.20;5.85;;;;;;;;;;5050715;28;20044;-73
2022/07/31 06:49:06;;;;;;;10.10;5.90;;;;;;;;;;5052306;28;20788;-73
2022/07/31 06:51:32;;;;;;;10.13;6.15;;;;;;;;;;5057619;28;20090;-73
2022/07/31 06:53:58;;;;;;;9.95;6.10;;;;;;;;;;5042045;28;20100;-73
2022/07/31 06:56:24;;;;;;;7.90;6.20;;;;;;;;;;5035074;28;20175;-74
2022/07/31 06:58:52;;;;;;;8.88;6.32;;;;;;;;;;5034506;28;20564;-73
2022/07/31 07:01:18;;;;;;;10.70;6.10;;;;;;;;;;5043603;28;20045;-74
2022/07/31 07:03:44;;;;;;;8.27;6.10;;;;;;;;;;5033669;28;20048;-74
2022/07/31 07:06:10;;;;;;;9.27;6.28;;;;;;;;;;5048055;28;20045;-74
2022/07/31 07:08:36;;;;;;;10.30;6.47;;;;;;;;;;5048478;28;20041;-74
2022/07/31 07:11:02;;;;;;;12.32;6.40;;;;;;;;;;5036679;28;20071;-74
2022/07/31 07:13:28;;;;;;;8.35;5.85;;;;;;;;;;5040424;28;20391;-74
2022/07/31 07:15:54;;;;;;;9.27;6.22;;;;;;;;;;5059351;28;20139;-74
2022/07/31 07:18:23;;;;;;;9.93;6.65;;;;;;;;;;5039071;28;20595;-74
2022/07/31 07:20:52;;;;;;;9.15;6.45;;;;;;;;;;5035415;28;20649;-74
2022/07/31 07:23:18;;;;;;;9.90;6.75;;;;;;;;;;5043050;28;20135;-74
2022/07/31 07:25:44;;;;;;;12.20;6.65;;;;;;;;;;5042763;28;20099;-74
2022/07/31 07:28:13;;;;;;;13.73;7.53;;;;;;;;;;5045806;28;20446;-74
2022/07/31 07:30:39;;;;;;;11.15;6.95;;;;;;;;;;5038424;28;20128;-74
2022/07/31 07:33:05;;;;;;;11.55;7.25;;;;;;;;;;5044925;28;20052;-74
2022/07/31 07:35:31;;;;;;;11.23;6.80;;;;;;;;;;5058681;28;20044;-74
2022/07/31 07:37:58;;;;;;;11.32;6.82;;;;;;;;;;5036369;28;20077;-74
2022/07/31 07:40:24;;;;;;;11.30;6.47;;;;;;;;;;5044689;28;20038;-75
2022/07/31 07:42:51;;;;;;;12.10;7.45;;;;;;;;;;5048638;28;20051;-74
2022/07/31 07:45:17;;;;;;;12.35;7.25;;;;;;;;;;5038366;28;20499;-74
2022/07/31 07:47:43;;;;;;;11.05;6.60;;;;;;;;;;5033713;28;20060;-74
2022/07/31 07:50:09;;;;;;;13.10;7.00;;;;;;;;;;5038016;28;20432;-75
2022/07/31 07:52:36;;;;;;;11.10;7.45;;;;;;;;;;5046909;28;20037;-74
2022/07/31 07:55:02;;;;;;;9.65;7.22;;;;;;;;;;5061685;28;20052;-74
2022/07/31 07:57:28;;;;;;;12.50;8.00;;;;;;;;;;5040995;28;20063;-74
2022/07/31 07:59:54;;;;;;;11.68;7.45;;;;;;;;;;5059233;28;20040;-74
2022/07/31 08:02:20;;;;;;;10.80;7.53;;;;;;;;;;5056239;28;20049;-74
2022/07/31 08:04:47;;;;;;;10.27;7.28;;;;;;;;;;5046682;28;20175;-74
2022/07/31 08:07:13;;;;;;;10.75;7.50;;;;;;;;;;5041209;28;20053;-74
2022/07/31 08:09:39;;;;;;;12.80;7.63;;;;;;;;;;5043257;28;20049;-75
2022/07/31 08:12:05;;;;;;;10.88;7.93;;;;;;;;;;5043149;28;20481;-75
2022/07/31 08:14:31;;;;;;;10.00;8.13;;;;;;;;;;5040137;28;20057;-75
2022/07/31 08:16:57;;;;;;;12.65;8.60;;;;;;;;;;5048144;28;20045;-75
2022/07/31 08:19:23;;;;;;;13.10;9.35;;;;;;;;;;5043721;28;20485;-74
2022/07/31 08:21:49;;;;;;;12.93;9.85;;;;;;;;;;5050884;28;20061;-75
2022/07/31 08:24:15;;;;;;;13.15;10.02;;;;;;;;;;5043296;28;20053;-75
2022/07/31 08:29:27;;;;;;;11.63;10.18;;;;;;;;;;5040259;28;20053;-75
2022/07/31 08:31:53;;;;;;;13.18;10.23;;;;;;;;;;5054123;28;20044;-74
2022/07/31 08:34:19;;;;;;;13.80;9.80;;;;;;;;;;5071772;28;20041;-73
2022/07/31 08:36:45;;;;;;;14.02;10.18;;;;;;;;;;5048326;28;20178;-74
2022/07/31 08:39:11;;;;;;;12.50;10.35;;;;;;;;;;5057863;28;20044;-74
2022/07/31 08:41:39;;;;;;;13.70;10.30;;;;;;;;;;5053221;28;20045;-73
2022/07/31 08:44:05;;;;;;;13.02;10.55;;;;;;;;;;5056162;28;20112;-73
2022/07/31 08:46:36;;;;;;;14.88;10.02;;;;;;;;;;5060797;28;20045;-73
2022/07/31 08:49:02;;;;;;;11.77;9.15;;;;;;;;;;5055679;28;20179;-73
2022/07/31 08:51:30;;;;;;;16.50;12.57;;;;;;;;;;5062020;28;20052;-73
2022/07/31 08:53:57;;;;;;;12.57;10.27;;;;;;;;;;5061648;28;20120;-73
2022/07/31 08:56:24;;;;;;;15.10;9.60;;;;;;;;;;5050854;28;20052;-73
2022/07/31 08:58:54;;;;;;;11.90;9.48;;;;;;;;;;5053918;28;20056;-73
2022/07/31 09:01:20;;;;;;;13.35;9.52;;;;;;;;;;5053514;28;20045;-75
2022/07/31 09:03:46;;;;;;;12.05;9.05;;;;;;;;;;5047006;28;20053;-75
2022/07/31 09:06:12;;;;;;;10.48;8.57;;;;;;;;;;5049382;28;20042;-75
2022/07/31 09:08:38;;;;;;;14.65;8.70;;;;;;;;;;5046330;28;20064;-73
2022/07/31 09:11:05;;;;;;;10.27;8.25;;;;;;;;;;5047459;28;20059;-74
2022/07/31 09:13:33;;;;;;;11.50;10.02;;;;;;;;;;5055548;28;20044;-76
2022/07/31 09:15:59;;;;;;;11.27;9.15;;;;;;;;;;5061298;28;20055;-73
2022/07/31 09:18:25;;;;;;;13.15;8.65;;;;;;;;;;5054032;28;20037;-75
2022/07/31 09:21:02;;;;;;;10.75;7.07;;;;;;;;;;5063766;28;20057;-75
2022/07/31 09:23:28;;;;;;;10.00;6.40;;;;;;;;;;5054809;28;20053;-75
2022/07/31 09:26:00;;;;;;;5.45;4.60;;;;;;;;;;5053610;28;20413;-75
2022/07/31 09:28:36;;;;;;;5.28;3.80;;;;;;;;;;5050325;28;20047;-76
2022/07/31 09:31:03;;;;;;;5.55;4.18;;;;;;;;;;5050515;28;20041;-76
2022/07/31 09:33:30;;;;;;;5.85;3.85;;;;;;;;;;5055708;28;20051;-75
2022/07/31 09:35:57;;;;;;;5.53;3.60;;;;;;;;;;5064887;28;20072;-75
2022/07/31 09:38:29;;;;;;;8.02;3.92;;;;;;;;;;5044718;28;20052;-75
2022/07/31 09:40:56;;;;;;;8.50;4.15;;;;;;;;;;5061218;28;20079;-75
2022/07/31 09:43:27;;;;;;;5.75;4.35;;;;;;;;;;5057466;28;20075;-75
2022/07/31 09:46:03;;;;;;;5.47;4.60;;;;;;;;;;5050732;28;20087;-74
2022/07/31 09:48:29;;;;;;;6.15;4.20;;;;;;;;;;5047310;28;20488;-74
2022/07/31 09:50:55;;;;;;;7.15;4.35;;;;;;;;;;5057190;28;20037;-74
2022/07/31 09:53:21;;;;;;;7.50;4.40;;;;;;;;;;5076796;28;20067;-74
2022/07/31 09:55:51;;;;;;;8.18;4.80;;;;;;;;;;5093403;28;20041;-73
2022/07/31 09:58:17;;;;;;;7.60;5.25;;;;;;;;;;5057642;28;20073;-75
2022/07/31 10:00:43;;;;;;;8.85;5.10;;;;;;;;;;5052317;28;20045;-75
2022/07/31 10:03:12;;;;;;;7.88;5.20;;;;;;;;;;5058056;28;20048;-75
2022/07/31 10:05:40;;;;;;;6.97;5.30;;;;;;;;;;5051514;28;20055;-75
2022/07/31 10:08:07;;;;;;;7.50;5.93;;;;;;;;;;5085494;28;20044;-74
2022/07/31 10:10:33;;;;;;;11.60;6.85;;;;;;;;;;5062218;28;20107;-74
2022/07/31 10:13:00;;;;;;;12.38;7.53;;;;;;;;;;5057201;28;20139;-75
2022/07/31 10:15:27;;;;;;;10.43;6.82;;;;;;;;;;5053536;28;20103;-75
2022/07/31 10:17:53;;;;;;;9.10;5.88;;;;;;;;;;5057588;28;20063;-75
2022/07/31 10:20:21;;;;;;;7.75;5.28;;;;;;;;;;5042948;28;20041;-74
2022/07/31 10:22:48;;;;;;;8.82;4.20;;;;;;;;;;5049501;28;20059;-74
2022/07/31 10:25:34;;;;;;;8.35;4.22;;;;;;;;;;5047927;28;20048;-74
2022/07/31 10:28:01;;;;;;;7.40;4.00;;;;;;;;;;5081310;28;20400;-72
2022/07/31 10:30:27;;;;;;;9.57;4.75;;;;;;;;;;5049859;28;20041;-75
2022/07/31 10:32:53;;;;;;;6.78;4.30;;;;;;;;;;5075204;28;20052;-75
2022/07/31 10:35:21;;;;;;;7.88;4.80;;;;;;;;;;5042833;28;20163;-76
2022/07/31 10:38:06;;;;;;;9.15;4.60;;;;;;;;;;5050585;28;20433;-75
2022/07/31 10:40:35;;;;;;;8.52;4.50;;;;;;;;;;5054544;28;20392;-75
2022/07/31 10:43:27;;;;;;;8.15;4.38;;;;;;;;;;5052680;28;20043;-75
2022/07/31 10:45:54;;;;;;;6.00;4.10;;;;;;;;;;5056267;28;20504;-75
2022/07/31 10:48:21;;;;;;;6.32;3.78;;;;;;;;;;5053210;28;20117;-75
2022/07/31 10:50:47;;;;;;;8.02;3.13;;;;;;;;;;5038049;28;20053;-74
2022/07/31 10:53:14;;;;;;;4.57;2.58;;;;;;;;;;5057348;28;20476;-74
2022/07/31 10:55:43;;;;;;;6.45;2.25;;;;;;;;;;5062956;28;20535;-76
2022/07/31 10:58:11;;;;;;;3.67;2.00;;;;;;;;;;5044983;28;20071;-78
2022/07/31 11:00:37;;;;;;;2.53;2.00;;;;;;;;;;5052272;28;20464;-75
2022/07/31 11:03:13;;;;;;;1.95;1.73;;;;;;;;;;5043320;28;20037;-75
2022/07/31 11:05:39;;;;;;;4.13;2.00;;;;;;;;;;5040627;28;20439;-74
2022/07/31 11:08:09;;;;;;;4.20;1.98;;;;;;;;;;5047690;28;20488;-74
2022/07/31 11:10:35;;;;;;;4.47;3.20;;;;;;;;;;5046812;28;20048;-74
2022/07/31 11:13:03;;;;;;;3.05;2.63;;;;;;;;;;5057516;28;20045;-74
2022/07/31 11:15:30;;;;;;;4.00;2.25;;;;;;;;;;5045691;28;20038;-73
2022/07/31 11:17:56;;;;;;;5.72;3.67;;;;;;;;;;5042233;28;20056;-73
2022/07/31 11:20:22;;;;;;;5.28;4.13;;;;;;;;;;5034049;28;20576;-74
2022/07/31 11:22:57;;;;;;;5.40;3.80;;;;;;;;;;5055019;28;20062;-74
2022/07/31 11:25:23;;;;;;;4.35;3.60;;;;;;;;;;5056044;28;20041;-73
2022/07/31 11:27:50;;;;;;;4.20;3.78;;;;;;;;;;5042544;28;20927;-77
2022/07/31 11:30:16;;;;;;;5.63;3.85;;;;;;;;;;5043510;28;20045;-73
2022/07/31 11:32:46;;;;;;;4.07;3.65;;;;;;;;;;5041375;28;20060;-73
2022/07/31 11:35:23;;;;;;;5.15;2.30;;;;;;;;;;5039396;28;20041;-73
2022/07/31 11:37:50;;;;;;;3.15;2.20;;;;;;;;;;5048661;28;20041;-73
2022/07/31 11:40:17;;;;;;;4.63;2.38;;;;;;;;;;5084322;28;20091;-72
2022/07/31 11:42:44;;;;;;;5.07;2.72;;;;;;;;;;5052503;28;20552;-72
2022/07/31 11:45:13;;;;;;;5.05;3.05;;;;;;;;;;5051545;28;20084;-72
2022/07/31 11:47:40;;;;;;;3.55;3.20;;;;;;;;;;5058292;28;20045;-72
2022/07/31 11:50:06;;;;;;;6.07;3.22;;;;;;;;;;5044510;28;20042;-72
2022/07/31 11:52:33;;;;;;;4.72;2.63;;;;;;;;;;5052345;28;20044;-72
2022/07/31 11:55:03;;;;;;;4.28;2.65;;;;;;;;;;5056482;28;20076;-72
2022/07/31 11:57:32;;;;;;;3.50;2.80;;;;;;;;;;5057299;28;20099;-73
2022/07/31 11:59:59;;;;;;;3.08;2.80;;;;;;;;;;5071047;28;20056;-73
2022/07/31 12:02:25;;;;;;;4.63;3.05;;;;;;;;;;5055346;28;20154;-73
2022/07/31 12:04:51;;;;;;;3.97;2.92;;;;;;;;;;5045254;28;20065;-73
2022/07/31 12:07:17;;;;;;;5.30;3.28;;;;;;;;;;5041109;28;20485;-73
2022/07/31 12:09:44;;;;;;;3.55;3.13;;;;;;;;;;5048915;28;20435;-74
2022/07/31 12:12:10;;;;;;;5.35;3.42;;;;;;;;;;5054986;28;20048;-73
2022/07/31 12:14:37;;;;;;;4.20;3.50;;;;;;;;;;5060958;28;20139;-73
2022/07/31 12:17:05;;;;;;;5.93;3.92;;;;;;;;;;5042673;28;20053;-73
2022/07/31 12:19:32;;;;;;;5.95;4.03;;;;;;;;;;5059983;28;20040;-74
2022/07/31 12:21:58;;;;;;;6.32;4.38;;;;;;;;;;5060347;28;20064;-74
2022/07/31 12:24:25;;;;;;;5.10;4.53;;;;;;;;;;5059726;28;20124;-74
2022/07/31 12:26:58;;;;;;;8.55;4.85;;;;;;;;;;5069304;28;20518;-76
2022/07/31 12:29:31;;;;;;;7.32;5.07;;;;;;;;;;5080711;28;20094;-76
2022/07/31 12:31:57;;;;;;;7.20;5.20;;;;;;;;;;5061640;28;20047;-81
2022/07/31 12:34:26;;;;;;;6.07;4.65;;;;;;;;;;5056052;28;20045;-76
2022/07/31 12:37:00;;;;;;;9.35;5.47;;;;;;;;;;5045366;28;20052;-76
2022/07/31 12:39:26;;;;;;;8.75;6.40;;;;;;;;;;5052383;28;20041;-76
2022/07/31 12:41:52;;;;;;;7.15;5.80;;;;;;;;;;5052496;28;20557;-74
2022/07/31 12:44:19;;;;;;;8.48;4.57;;;;;;;;;;5061378;28;20166;-76
2022/07/31 12:46:46;;;;;;;8.35;4.97;;;;;;;;;;5048299;28;20051;-75
2022/07/31 12:49:12;;;;;;;10.57;5.28;;;;;;;;;;5050584;28;20119;-75
2022/07/31 12:51:41;;;;;;;10.93;6.25;;;;;;;;;;5048914;28;20052;-72
2022/07/31 12:54:08;;;;;;;7.05;5.82;;;;;;;;;;5058336;28;20106;-74
2022/07/31 12:56:34;;;;;;;12.20;7.22;;;;;;;;;;5057988;28;20048;-73
2022/07/31 12:59:01;;;;;;;7.82;6.40;;;;;;;;;;5043830;28;20411;-72
2022/07/31 13:01:30;;;;;;;12.25;7.43;;;;;;;;;;5046652;28;20049;-73
2022/07/31 13:03:57;;;;;;;10.13;6.63;;;;;;;;;;5047959;28;20071;-71
2022/07/31 13:06:23;;;;;;;13.13;6.82;;;;;;;;;;5037815;28;20049;-71
2022/07/31 13:08:49;;;;;;;12.23;6.50;;;;;;;;;;5058942;28;20041;-72
2022/07/31 13:11:15;;;;;;;12.38;6.35;;;;;;;;;;5049101;28;20075;-71
2022/07/31 13:13:41;;;;;;;12.00;6.20;;;;;;;;;;5051365;28;20056;-72
2022/07/31 13:16:07;;;;;;;12.02;6.30;;;;;;;;;;5054635;28;20048;-71
2022/07/31 13:18:34;;;;;;;13.30;6.97;;;;;;;;;;5042952;28;20040;-73
2022/07/31 13:21:00;;;;;;;11.50;6.43;;;;;;;;;;5044281;28;20061;-72
2022/07/31 13:23:26;;;;;;;9.13;6.20;;;;;;;;;;5034848;28;20127;-75
2022/07/31 13:25:52;;;;;;;13.32;6.63;;;;;;;;;;5053150;28;20048;-71
2022/07/31 13:28:18;;;;;;;15.00;6.75;;;;;;;;;;5036307;28;20083;-72
2022/07/31 13:30:45;;;;;;;11.27;5.88;;;;;;;;;;5045748;28;20037;-71
2022/07/31 13:33:10;;;;;;;14.38;6.20;;;;;;;;;;5037181;28;20492;-71
2022/07/31 13:35:37;;;;;;;14.85;6.47;;;;;;;;;;5052102;28;20048;-72
2022/07/31 13:38:03;;;;;;;8.85;5.47;;;;;;;;;;5042508;28;20155;-74
2022/07/31 13:43:13;;;;;;;9.27;5.25;;;;;;;;;;5042264;28;20463;-73
2022/07/31 13:45:39;;;;;;;8.60;4.70;;;;;;;;;;5053853;28;20075;-72
2022/07/31 13:48:08;;;;;;;8.73;5.50;;;;;;;;;;5045683;28;20067;-73
2022/07/31 13:50:34;;;;;;;7.45;5.18;;;;;;;;;;5044138;28;20046;-74
2022/07/31 13:53:00;;;;;;;9.35;5.45;;;;;;;;;;5040199;28;20040;-73
2022/07/31 13:55:26;;;;;;;7.90;5.50;;;;;;;;;;5052953;28;20059;-74
2022/07/31 13:57:52;;;;;;;10.43;6.20;;;;;;;;;;5059415;28;20053;-73
2022/07/31 14:00:21;;;;;;;7.28;5.15;;;;;;;;;;5046009;28;20119;-73
2022/07/31 14:02:48;;;;;;;10.82;5.40;;;;;;;;;;5060763;28;20067;-74
2022/07/31 14:05:14;;;;;;;9.45;5.70;;;;;;;;;;5054326;28;20050;-72
2022/07/31 14:07:40;;;;;;;10.18;6.10;;;;;;;;;;5052859;28;20124;-72
2022/07/31 14:10:07;;;;;;;8.35;5.90;;;;;;;;;;5061140;28;20127;-75
2022/07/31 14:12:33;;;;;;;8.60;5.45;;;;;;;;;;5054431;28;20032;-74
2022/07/31 14:14:59;;;;;;;9.93;5.20;;;;;;;;;;5060447;28;20072;-74
2022/07/31 14:17:25;;;;;;;10.18;5.18;;;;;;;;;;5042304;28;20084;-76
2022/07/31 14:19:51;;;;;;;9.57;5.47;;;;;;;;;;5048333;28;20064;-76
2022/07/31 14:22:17;;;;;;;10.13;6.22;;;;;;;;;;5049866;28;20094;-76
2022/07/31 14:24:43;;;;;;;12.05;5.95;;;;;;;;;;5054404;28;20127;-75
2022/07/31 14:27:09;;;;;;;11.30;6.45;;;;;;;;;;5047264;28;20132;-74
2022/07/31 14:29:35;;;;;;;10.15;6.50;;;;;;;;;;5055307;28;20119;-75
2022/07/31 14:32:01;;;;;;;9.55;6.45;;;;;;;;;;5082004;28;20045;-76
2022/07/31 14:34:27;;;;;;;10.73;7.07;;;;;;;;;;5054817;28;20043;-75
2022/07/31 14:36:53;;;;;;;10.30;6.90;;;;;;;;;;5045700;28;20040;-75
2022/07/31 14:39:19;;;;;;;10.65;6.22;;;;;;;;;;5060423;28;20374;-75
2022/07/31 14:41:45;;;;;;;9.85;6.70;;;;;;;;;;5061591;28;20076;-77
2022/07/31 14:44:13;;;;;;;11.00;6.93;;;;;;;;;;5048965;28;20049;-75